PWSweather.com
Personal Weather Stations
Station Observations
BRISTOL
HorfieldFilton, BristolGB BS7

HorfieldFiltonBristolGB BS7

Lat: 51.5, Lon: -2.576

Elevation: 272

Station Type: Davis VP2

http://www.martynhicks.co.uk/weather/data.php

Latest ConditionsUpdated 9:10:01 AM GMT Saturday, Jan 20, 2018
Currently Today's Max Today's Min Today's Average
Temperature 39.9°F4.4°C 40.0°F4.4°C 38.5°F3.6°C 39.4°F4.1°C
Dew Point 38.6°F3.7°C 38.6°F3.7°C 35.2°F1.8°C 37.0°F2.8°C
Winds 2.3 mph SSW3.7 kmh SSW 2.3 mph SSW3.7 kmh SSW - 0.3 mph 0.5 kmh
Wind Gusts 3.5 mph5.6 kmh 5.8 mph9.3 kmh - -
Humidity 95% 95% 87% 91%
Pressure 29.52 in999.7 mb 29.80 in1009.1 mb 29.52 in999.7 mb -
Precipitation - 0.02 in0.5 mm - -
Hour Temp Dew Point Humidity Winds Wind Gusts Pressure Precip Precip Rate Daily Precip Total
09:10 AM 39.9°F4.4°C 38.6°F3.7°C 95% 2.3 mph SSW3.7 kmh SSW 3.5 mph5.6 kmh 29.52 in999.7 mb - 0.00 in0.0 mm 0.02 in0.5 mm
09:00 AM 39.9°F4.4°C 38.6°F3.7°C 95% 2.3 mph SSW3.7 kmh SSW 2.3 mph3.7 kmh 29.52 in999.7 mb - 0.00 in0.0 mm 0.02 in0.5 mm
08:50 AM 39.9°F4.4°C 38.5°F3.6°C 95% Calm Calm -- 29.53 in1000.0 mb - 0.00 in0.0 mm 0.02 in0.5 mm
08:40 AM 39.8°F4.3°C 38.5°F3.6°C 95% 2.3 mph SSW3.7 kmh SSW 3.5 mph5.6 kmh 29.52 in999.7 mb - 0.01 in0.3 mm 0.02 in0.5 mm
08:30 AM 39.8°F4.3°C 38.5°F3.6°C 95% Calm Calm 3.5 mph5.6 kmh 29.53 in1000.0 mb - 0.00 in0.0 mm 0.02 in0.5 mm
08:20 AM 39.7°F4.3°C 38.1°F3.4°C 94% Calm Calm 2.3 mph3.7 kmh 29.53 in1000.0 mb - 0.00 in0.0 mm 0.02 in0.5 mm
08:10 AM 39.7°F4.3°C 38.1°F3.4°C 94% 1.2 mph SSW1.9 kmh SSW 3.5 mph5.6 kmh 29.52 in999.7 mb - 0.00 in0.0 mm 0.02 in0.5 mm
08:00 AM 39.7°F4.3°C 38.1°F3.4°C 94% 2.3 mph SSW3.7 kmh SSW 3.5 mph5.6 kmh 29.52 in999.7 mb - 0.00 in0.0 mm 0.02 in0.5 mm
07:50 AM 39.7°F4.3°C 38.1°F3.4°C 94% 1.2 mph SSW1.9 kmh SSW 3.5 mph5.6 kmh 29.53 in1000.0 mb - 0.00 in0.0 mm 0.02 in0.5 mm
07:40 AM 39.7°F4.3°C 38.1°F3.4°C 94% Calm Calm -- 29.53 in1000.0 mb - 0.00 in0.0 mm 0.02 in0.5 mm
07:30 AM 39.8°F4.3°C 38.2°F3.4°C 94% Calm Calm 2.3 mph3.7 kmh 29.53 in1000.0 mb - 0.00 in0.0 mm 0.02 in0.5 mm
07:20 AM 39.8°F4.3°C 38.2°F3.4°C 94% Calm Calm -- 29.53 in1000.0 mb - 0.00 in0.0 mm 0.02 in0.5 mm
07:10 AM 39.9°F4.4°C 38.0°F3.3°C 93% Calm Calm -- 29.54 in1000.3 mb - 0.01 in0.3 mm 0.02 in0.5 mm
07:00 AM 40.0°F4.4°C 38.1°F3.4°C 93% Calm Calm -- 29.55 in1000.7 mb - 0.00 in0.0 mm 0.01 in0.3 mm
06:50 AM 39.9°F4.4°C 38.1°F3.4°C 93% Calm Calm -- 29.56 in1001.0 mb - 0.01 in0.3 mm 0.01 in0.3 mm
06:40 AM 39.9°F4.4°C 38.0°F3.3°C 93% Calm Calm -- 29.56 in1001.0 mb - 0.00 in0.0 mm 0.00 in0.0 mm
06:30 AM 39.8°F4.3°C 37.9°F3.3°C 93% Calm Calm -- 29.56 in1001.0 mb - 0.00 in0.0 mm 0.00 in0.0 mm
06:20 AM 39.6°F4.2°C 37.8°F3.2°C 93% Calm Calm 3.5 mph5.6 kmh 29.56 in1001.0 mb - 0.00 in0.0 mm 0.00 in0.0 mm
06:10 AM 39.5°F4.2°C 37.6°F3.1°C 93% Calm Calm -- 29.56 in1001.0 mb - 0.00 in0.0 mm 0.00 in0.0 mm
06:00 AM 39.4°F4.1°C 37.6°F3.1°C 93% Calm Calm -- 29.56 in1001.0 mb - 0.00 in0.0 mm 0.00 in0.0 mm
05:50 AM 39.3°F4.1°C 37.2°F2.9°C 92% Calm Calm 2.3 mph3.7 kmh 29.57 in1001.4 mb - 0.00 in0.0 mm 0.00 in0.0 mm
05:40 AM 39.3°F4.1°C 37.2°F2.9°C 92% Calm Calm -- 29.57 in1001.4 mb - 0.00 in0.0 mm 0.00 in0.0 mm
05:30 AM 39.3°F4.1°C 37.2°F2.9°C 92% Calm Calm -- 29.58 in1001.7 mb - 0.00 in0.0 mm 0.00 in0.0 mm
05:20 AM 39.3°F4.1°C 37.2°F2.9°C 92% Calm Calm -- 29.59 in1002.0 mb - 0.00 in0.0 mm 0.00 in0.0 mm
05:10 AM 39.3°F4.1°C 37.2°F2.9°C 92% Calm Calm -- 29.59 in1002.0 mb - 0.00 in0.0 mm 0.00 in0.0 mm
05:00 AM 39.3°F4.1°C 36.9°F2.7°C 91% Calm Calm -- 29.60 in1002.4 mb - 0.00 in0.0 mm 0.00 in0.0 mm
04:50 AM 39.3°F4.1°C 36.9°F2.7°C 91% Calm Calm 1.2 mph1.9 kmh 29.61 in1002.7 mb - 0.00 in0.0 mm 0.00 in0.0 mm
04:40 AM 39.4°F4.1°C 37.0°F2.8°C 91% Calm Calm 1.2 mph1.9 kmh 29.61 in1002.7 mb - 0.00 in0.0 mm 0.00 in0.0 mm
04:30 AM 39.4°F4.1°C 37.0°F2.8°C 91% Calm Calm -- 29.62 in1003.0 mb - 0.00 in0.0 mm 0.00 in0.0 mm
04:20 AM 39.4°F4.1°C 37.0°F2.8°C 91% Calm Calm -- 29.63 in1003.4 mb - 0.00 in0.0 mm 0.00 in0.0 mm
04:10 AM 39.5°F4.2°C 36.8°F2.7°C 90% Calm Calm 1.2 mph1.9 kmh 29.63 in1003.4 mb - 0.00 in0.0 mm 0.00 in0.0 mm
04:00 AM 39.5°F4.2°C 36.8°F2.7°C 90% Calm Calm -- 29.64 in1003.7 mb - 0.00 in0.0 mm 0.00 in0.0 mm
03:50 AM 39.5°F4.2°C 36.8°F2.7°C 90% Calm Calm -- 29.64 in1003.7 mb - 0.00 in0.0 mm 0.00 in0.0 mm
03:40 AM 39.5°F4.2°C 36.8°F2.7°C 90% Calm Calm -- 29.65 in1004.1 mb - 0.00 in0.0 mm 0.00 in0.0 mm
03:30 AM 39.5°F4.2°C 36.8°F2.7°C 90% Calm Calm 1.2 mph1.9 kmh 29.67 in1004.7 mb - 0.00 in0.0 mm 0.00 in0.0 mm
03:20 AM 39.5°F4.2°C 36.8°F2.7°C 90% Calm Calm -- 29.67 in1004.7 mb - 0.00 in0.0 mm 0.00 in0.0 mm
03:10 AM 39.4°F4.1°C 36.4°F2.4°C 89% Calm Calm 1.2 mph1.9 kmh 29.68 in1005.1 mb - 0.00 in0.0 mm 0.00 in0.0 mm
03:00 AM 39.4°F4.1°C 36.4°F2.4°C 89% Calm Calm -- 29.69 in1005.4 mb - 0.00 in0.0 mm 0.00 in0.0 mm
02:50 AM 39.5°F4.2°C 36.5°F2.5°C 89% Calm Calm 1.2 mph1.9 kmh 29.70 in1005.8 mb - 0.00 in0.0 mm 0.00 in0.0 mm
02:40 AM 39.5°F4.2°C 36.5°F2.5°C 89% Calm Calm 2.3 mph3.7 kmh 29.71 in1006.1 mb - 0.00 in0.0 mm 0.00 in0.0 mm
02:30 AM 39.5°F4.2°C 36.5°F2.5°C 89% Calm Calm 1.2 mph1.9 kmh 29.71 in1006.1 mb - 0.00 in0.0 mm 0.00 in0.0 mm
02:20 AM 39.5°F4.2°C 36.5°F2.5°C 89% Calm Calm 3.5 mph5.6 kmh 29.72 in1006.4 mb - 0.00 in0.0 mm 0.00 in0.0 mm
02:10 AM 39.3°F4.1°C 36.3°F2.4°C 89% 1.2 mph SW1.9 kmh SW 5.8 mph9.3 kmh 29.73 in1006.8 mb - 0.00 in0.0 mm 0.00 in0.0 mm
02:00 AM 39.2°F4.0°C 36.2°F2.3°C 89% Calm Calm 2.3 mph3.7 kmh 29.73 in1006.8 mb - 0.00 in0.0 mm 0.00 in0.0 mm
01:50 AM 38.9°F3.8°C 35.9°F2.2°C 89% Calm Calm 1.2 mph1.9 kmh 29.74 in1007.1 mb - 0.00 in0.0 mm 0.00 in0.0 mm
01:40 AM 38.9°F3.8°C 35.9°F2.2°C 89% Calm Calm -- 29.75 in1007.5 mb - 0.00 in0.0 mm 0.00 in0.0 mm
01:30 AM 38.7°F3.7°C 35.7°F2.1°C 89% 1.2 mph SW1.9 kmh SW 5.8 mph9.3 kmh 29.75 in1007.5 mb - 0.00 in0.0 mm 0.00 in0.0 mm
01:20 AM 38.5°F3.6°C 35.3°F1.8°C 88% Calm Calm 3.5 mph5.6 kmh 29.76 in1007.8 mb - 0.00 in0.0 mm 0.00 in0.0 mm
01:10 AM 38.5°F3.6°C 35.3°F1.8°C 88% 1.2 mph SW1.9 kmh SW 2.3 mph3.7 kmh 29.76 in1007.8 mb - 0.00 in0.0 mm 0.00 in0.0 mm
01:00 AM 38.6°F3.7°C 35.4°F1.9°C 88% Calm Calm 1.2 mph1.9 kmh 29.76 in1007.8 mb - 0.00 in0.0 mm 0.00 in0.0 mm
12:50 AM 38.6°F3.7°C 35.4°F1.9°C 88% Calm Calm -- 29.77 in1008.1 mb - 0.00 in0.0 mm 0.00 in0.0 mm
12:40 AM 38.7°F3.7°C 35.2°F1.8°C 87% Calm Calm -- 29.77 in1008.1 mb - 0.00 in0.0 mm 0.00 in0.0 mm
12:30 AM 38.9°F3.8°C 35.4°F1.9°C 87% Calm Calm -- 29.78 in1008.5 mb - 0.00 in0.0 mm 0.00 in0.0 mm
12:20 AM 39.1°F3.9°C 35.6°F2.0°C 87% Calm Calm -- 29.78 in1008.5 mb - 0.00 in0.0 mm 0.00 in0.0 mm
12:10 AM 39.2°F4.0°C 35.7°F2.1°C 87% Calm Calm -- 29.79 in1008.8 mb - 0.00 in0.0 mm 0.00 in0.0 mm
12:00 AM 39.3°F4.1°C 36.0°F2.2°C 88% Calm Calm -- 29.80 in1009.1 mb - 0.00 in0.0 mm 0.00 in0.0 mm